sensor_id;sensor_type;location;lat;lon;timestamp;temperature;humidity
17415;DHT22;8825;48.086;16.426;2024-02-14T00:00:22;7.30;59.00
17415;DHT22;8825;48.086;16.426;2024-02-14T00:02:51;7.30;59.00
17415;DHT22;8825;48.086;16.426;2024-02-14T00:05:19;7.30;59.10
17415;DHT22;8825;48.086;16.426;2024-02-14T00:07:46;7.20;59.10
17415;DHT22;8825;48.086;16.426;2024-02-14T00:10:14;7.20;59.10
17415;DHT22;8825;48.086;16.426;2024-02-14T00:12:41;7.20;59.20
17415;DHT22;8825;48.086;16.426;2024-02-14T00:15:09;7.20;59.30
17415;DHT22;8825;48.086;16.426;2024-02-14T00:17:37;7.20;59.40
17415;DHT22;8825;48.086;16.426;2024-02-14T00:20:05;7.10;60.10
17415;DHT22;8825;48.086;16.426;2024-02-14T00:22:33;7.10;59.40
17415;DHT22;8825;48.086;16.426;2024-02-14T00:25:00;7.00;59.40
17415;DHT22;8825;48.086;16.426;2024-02-14T00:27:28;7.00;59.30
17415;DHT22;8825;48.086;16.426;2024-02-14T00:29:56;6.90;59.30
17415;DHT22;8825;48.086;16.426;2024-02-14T00:32:24;6.80;59.30
17415;DHT22;8825;48.086;16.426;2024-02-14T00:34:51;6.80;59.50
17415;DHT22;8825;48.086;16.426;2024-02-14T00:37:20;6.70;59.60
17415;DHT22;8825;48.086;16.426;2024-02-14T00:39:47;6.70;59.70
17415;DHT22;8825;48.086;16.426;2024-02-14T00:42:16;6.70;59.80
17415;DHT22;8825;48.086;16.426;2024-02-14T00:44:44;6.60;60.10
17415;DHT22;8825;48.086;16.426;2024-02-14T00:47:11;6.60;60.20
17415;DHT22;8825;48.086;16.426;2024-02-14T00:49:39;6.50;60.20
17415;DHT22;8825;48.086;16.426;2024-02-14T00:52:06;6.50;60.30
17415;DHT22;8825;48.086;16.426;2024-02-14T00:54:35;6.40;60.10
17415;DHT22;8825;48.086;16.426;2024-02-14T00:57:03;6.40;60.00
17415;DHT22;8825;48.086;16.426;2024-02-14T00:59:31;6.30;59.80
17415;DHT22;8825;48.086;16.426;2024-02-14T01:01:59;6.20;59.90
17415;DHT22;8825;48.086;16.426;2024-02-14T01:04:26;6.10;59.80
17415;DHT22;8825;48.086;16.426;2024-02-14T01:06:54;6.10;59.90
17415;DHT22;8825;48.086;16.426;2024-02-14T01:09:21;6.00;59.90
17415;DHT22;8825;48.086;16.426;2024-02-14T01:11:49;5.90;59.90
17415;DHT22;8825;48.086;16.426;2024-02-14T01:14:17;5.80;60.00
17415;DHT22;8825;48.086;16.426;2024-02-14T01:16:46;5.70;60.20
17415;DHT22;8825;48.086;16.426;2024-02-14T01:19:14;5.70;60.30
17415;DHT22;8825;48.086;16.426;2024-02-14T01:21:41;5.60;60.40
17415;DHT22;8825;48.086;16.426;2024-02-14T01:24:09;5.60;60.40
17415;DHT22;8825;48.086;16.426;2024-02-14T01:26:37;5.50;60.50
17415;DHT22;8825;48.086;16.426;2024-02-14T01:29:04;5.40;60.80
17415;DHT22;8825;48.086;16.426;2024-02-14T01:31:33;5.20;61.40
17415;DHT22;8825;48.086;16.426;2024-02-14T01:34:01;5.10;61.80
17415;DHT22;8825;48.086;16.426;2024-02-14T01:36:29;5.00;62.30
17415;DHT22;8825;48.086;16.426;2024-02-14T01:38:56;4.90;62.40
17415;DHT22;8825;48.086;16.426;2024-02-14T01:41:24;4.90;62.60
17415;DHT22;8825;48.086;16.426;2024-02-14T01:43:51;4.90;62.70
17415;DHT22;8825;48.086;16.426;2024-02-14T01:46:19;4.90;62.80
17415;DHT22;8825;48.086;16.426;2024-02-14T01:48:47;4.90;63.00
17415;DHT22;8825;48.086;16.426;2024-02-14T01:51:16;4.90;63.20
17415;DHT22;8825;48.086;16.426;2024-02-14T01:53:45;4.90;63.30
17415;DHT22;8825;48.086;16.426;2024-02-14T01:56:13;4.90;63.40
17415;DHT22;8825;48.086;16.426;2024-02-14T01:58:42;4.90;63.40
17415;DHT22;8825;48.086;16.426;2024-02-14T02:01:11;4.90;63.40
17415;DHT22;8825;48.086;16.426;2024-02-14T02:03:38;4.90;63.40
17415;DHT22;8825;48.086;16.426;2024-02-14T02:06:07;4.90;63.50
17415;DHT22;8825;48.086;16.426;2024-02-14T02:08:34;4.90;63.60
17415;DHT22;8825;48.086;16.426;2024-02-14T02:11:03;4.80;63.60
17415;DHT22;8825;48.086;16.426;2024-02-14T02:13:31;4.80;63.70
17415;DHT22;8825;48.086;16.426;2024-02-14T02:15:59;4.80;63.60
17415;DHT22;8825;48.086;16.426;2024-02-14T02:18:28;4.70;63.60
17415;DHT22;8825;48.086;16.426;2024-02-14T02:20:57;4.70;63.70
17415;DHT22;8825;48.086;16.426;2024-02-14T02:23:24;4.70;63.90
17415;DHT22;8825;48.086;16.426;2024-02-14T02:25:52;4.60;63.90
17415;DHT22;8825;48.086;16.426;2024-02-14T02:28:19;4.60;63.90
17415;DHT22;8825;48.086;16.426;2024-02-14T02:30:47;4.60;63.90
17415;DHT22;8825;48.086;16.426;2024-02-14T02:33:14;4.60;63.90
17415;DHT22;8825;48.086;16.426;2024-02-14T02:35:42;4.50;63.90
17415;DHT22;8825;48.086;16.426;2024-02-14T02:38:12;4.50;63.90
17415;DHT22;8825;48.086;16.426;2024-02-14T02:40:40;4.50;64.10
17415;DHT22;8825;48.086;16.426;2024-02-14T02:43:07;4.50;64.10
17415;DHT22;8825;48.086;16.426;2024-02-14T02:45:37;4.40;64.20
17415;DHT22;8825;48.086;16.426;2024-02-14T02:48:06;4.40;64.40
17415;DHT22;8825;48.086;16.426;2024-02-14T02:50:33;4.30;64.50
17415;DHT22;8825;48.086;16.426;2024-02-14T02:53:01;4.30;64.90
17415;DHT22;8825;48.086;16.426;2024-02-14T02:55:28;4.30;65.00
17415;DHT22;8825;48.086;16.426;2024-02-14T02:57:56;4.30;65.10
17415;DHT22;8825;48.086;16.426;2024-02-14T03:00:25;4.20;65.20
17415;DHT22;8825;48.086;16.426;2024-02-14T03:02:53;4.20;65.30
17415;DHT22;8825;48.086;16.426;2024-02-14T03:05:20;4.30;65.40
17415;DHT22;8825;48.086;16.426;2024-02-14T03:07:50;4.20;65.30
17415;DHT22;8825;48.086;16.426;2024-02-14T03:10:19;4.20;65.40
17415;DHT22;8825;48.086;16.426;2024-02-14T03:12:50;4.20;65.40
17415;DHT22;8825;48.086;16.426;2024-02-14T03:15:19;4.20;65.30
17415;DHT22;8825;48.086;16.426;2024-02-14T03:17:46;4.10;65.20
17415;DHT22;8825;48.086;16.426;2024-02-14T03:20:14;4.00;65.20
17415;DHT22;8825;48.086;16.426;2024-02-14T03:22:44;3.90;65.20
17415;DHT22;8825;48.086;16.426;2024-02-14T03:25:13;3.90;65.10
17415;DHT22;8825;48.086;16.426;2024-02-14T03:27:43;3.80;65.30
17415;DHT22;8825;48.086;16.426;2024-02-14T03:30:19;3.80;65.40
17415;DHT22;8825;48.086;16.426;2024-02-14T03:32:46;3.70;65.40
17415;DHT22;8825;48.086;16.426;2024-02-14T03:35:14;3.70;65.50
17415;DHT22;8825;48.086;16.426;2024-02-14T03:37:42;3.60;65.70
17415;DHT22;8825;48.086;16.426;2024-02-14T03:40:12;3.60;65.80
17415;DHT22;8825;48.086;16.426;2024-02-14T03:42:39;3.50;65.80
17415;DHT22;8825;48.086;16.426;2024-02-14T03:45:10;3.40;66.20
17415;DHT22;8825;48.086;16.426;2024-02-14T03:47:37;3.30;66.30
17415;DHT22;8825;48.086;16.426;2024-02-14T03:50:08;3.30;66.40
17415;DHT22;8825;48.086;16.426;2024-02-14T03:52:36;3.20;66.40
17415;DHT22;8825;48.086;16.426;2024-02-14T03:55:04;3.20;66.70
17415;DHT22;8825;48.086;16.426;2024-02-14T03:57:32;3.10;66.90
17415;DHT22;8825;48.086;16.426;2024-02-14T04:00:01;3.10;67.10
17415;DHT22;8825;48.086;16.426;2024-02-14T04:02:29;3.10;67.20
17415;DHT22;8825;48.086;16.426;2024-02-14T04:04:58;3.00;67.10
17415;DHT22;8825;48.086;16.426;2024-02-14T04:07:25;3.00;67.30
17415;DHT22;8825;48.086;16.426;2024-02-14T04:09:53;2.90;67.40
17415;DHT22;8825;48.086;16.426;2024-02-14T04:12:21;2.90;67.50
17415;DHT22;8825;48.086;16.426;2024-02-14T04:14:48;2.80;67.50
17415;DHT22;8825;48.086;16.426;2024-02-14T04:17:16;2.70;67.80
17415;DHT22;8825;48.086;16.426;2024-02-14T04:19:43;2.60;68.20
17415;DHT22;8825;48.086;16.426;2024-02-14T04:22:11;2.60;69.20
17415;DHT22;8825;48.086;16.426;2024-02-14T04:24:38;2.50;70.40
17415;DHT22;8825;48.086;16.426;2024-02-14T04:27:06;2.50;70.50
17415;DHT22;8825;48.086;16.426;2024-02-14T04:29:33;2.50;70.80
17415;DHT22;8825;48.086;16.426;2024-02-14T04:32:02;2.50;72.10
17415;DHT22;8825;48.086;16.426;2024-02-14T04:34:29;2.40;72.70
17415;DHT22;8825;48.086;16.426;2024-02-14T04:36:57;2.40;73.10
17415;DHT22;8825;48.086;16.426;2024-02-14T04:39:24;2.30;73.60
17415;DHT22;8825;48.086;16.426;2024-02-14T04:41:52;2.30;73.90
17415;DHT22;8825;48.086;16.426;2024-02-14T04:44:20;2.30;74.20
17415;DHT22;8825;48.086;16.426;2024-02-14T04:47:07;2.30;74.10
17415;DHT22;8825;48.086;16.426;2024-02-14T04:49:36;2.40;73.70
17415;DHT22;8825;48.086;16.426;2024-02-14T04:52:04;2.50;73.90
17415;DHT22;8825;48.086;16.426;2024-02-14T04:54:34;2.50;74.40
17415;DHT22;8825;48.086;16.426;2024-02-14T04:57:01;2.50;74.50
17415;DHT22;8825;48.086;16.426;2024-02-14T04:59:30;2.50;74.90
17415;DHT22;8825;48.086;16.426;2024-02-14T05:01:58;2.50;74.90
17415;DHT22;8825;48.086;16.426;2024-02-14T05:04:26;2.60;75.30
17415;DHT22;8825;48.086;16.426;2024-02-14T05:06:54;2.60;76.00
17415;DHT22;8825;48.086;16.426;2024-02-14T05:09:21;2.60;76.10
17415;DHT22;8825;48.086;16.426;2024-02-14T05:11:49;2.60;76.20
17415;DHT22;8825;48.086;16.426;2024-02-14T05:14:16;2.60;76.10
17415;DHT22;8825;48.086;16.426;2024-02-14T05:16:44;2.60;76.00
17415;DHT22;8825;48.086;16.426;2024-02-14T05:19:12;2.60;76.00
17415;DHT22;8825;48.086;16.426;2024-02-14T05:21:40;2.70;76.00
17415;DHT22;8825;48.086;16.426;2024-02-14T05:24:08;2.60;76.00
17415;DHT22;8825;48.086;16.426;2024-02-14T05:26:35;2.60;75.70
17415;DHT22;8825;48.086;16.426;2024-02-14T05:29:02;2.70;75.50
17415;DHT22;8825;48.086;16.426;2024-02-14T05:31:44;2.70;74.80
17415;DHT22;8825;48.086;16.426;2024-02-14T05:34:12;2.70;75.20
17415;DHT22;8825;48.086;16.426;2024-02-14T05:36:40;2.80;75.20
17415;DHT22;8825;48.086;16.426;2024-02-14T05:39:09;2.70;75.50
17415;DHT22;8825;48.086;16.426;2024-02-14T05:41:37;2.70;75.80
17415;DHT22;8825;48.086;16.426;2024-02-14T05:44:04;2.70;76.00
17415;DHT22;8825;48.086;16.426;2024-02-14T05:46:32;2.70;76.00
17415;DHT22;8825;48.086;16.426;2024-02-14T05:48:59;2.60;76.10
17415;DHT22;8825;48.086;16.426;2024-02-14T05:51:27;2.60;76.00
17415;DHT22;8825;48.086;16.426;2024-02-14T05:53:55;2.70;75.70
17415;DHT22;8825;48.086;16.426;2024-02-14T05:56:23;2.80;75.50
17415;DHT22;8825;48.086;16.426;2024-02-14T05:58:50;2.90;75.40
17415;DHT22;8825;48.086;16.426;2024-02-14T06:01:18;2.90;75.20
17415;DHT22;8825;48.086;16.426;2024-02-14T06:03:45;3.00;75.00
17415;DHT22;8825;48.086;16.426;2024-02-14T06:06:13;3.10;74.70
17415;DHT22;8825;48.086;16.426;2024-02-14T06:08:40;3.10;74.30
17415;DHT22;8825;48.086;16.426;2024-02-14T06:11:08;3.20;74.10
17415;DHT22;8825;48.086;16.426;2024-02-14T06:13:35;3.20;73.80
17415;DHT22;8825;48.086;16.426;2024-02-14T06:16:03;3.30;73.70
17415;DHT22;8825;48.086;16.426;2024-02-14T06:18:31;3.40;73.50
17415;DHT22;8825;48.086;16.426;2024-02-14T06:20:58;3.40;73.30
17415;DHT22;8825;48.086;16.426;2024-02-14T06:23:26;3.40;73.10
17415;DHT22;8825;48.086;16.426;2024-02-14T06:25:54;3.50;72.90
17415;DHT22;8825;48.086;16.426;2024-02-14T06:28:21;3.50;72.70
17415;DHT22;8825;48.086;16.426;2024-02-14T06:30:49;3.50;72.60
17415;DHT22;8825;48.086;16.426;2024-02-14T06:33:16;3.50;72.30
17415;DHT22;8825;48.086;16.426;2024-02-14T06:35:44;3.60;72.20
17415;DHT22;8825;48.086;16.426;2024-02-14T06:38:12;3.60;72.00
17415;DHT22;8825;48.086;16.426;2024-02-14T06:40:39;3.50;71.70
17415;DHT22;8825;48.086;16.426;2024-02-14T06:43:07;3.60;71.70
17415;DHT22;8825;48.086;16.426;2024-02-14T06:45:34;3.50;72.40
17415;DHT22;8825;48.086;16.426;2024-02-14T06:48:02;3.50;71.40
17415;DHT22;8825;48.086;16.426;2024-02-14T06:50:29;3.50;71.30
17415;DHT22;8825;48.086;16.426;2024-02-14T06:52:57;3.60;71.30
17415;DHT22;8825;48.086;16.426;2024-02-14T06:55:27;3.60;71.10
17415;DHT22;8825;48.086;16.426;2024-02-14T06:57:56;3.60;71.00
17415;DHT22;8825;48.086;16.426;2024-02-14T07:00:24;3.60;70.90
17415;DHT22;8825;48.086;16.426;2024-02-14T07:02:51;3.70;70.90
17415;DHT22;8825;48.086;16.426;2024-02-14T07:05:19;3.70;70.70
17415;DHT22;8825;48.086;16.426;2024-02-14T07:07:46;3.80;70.80
17415;DHT22;8825;48.086;16.426;2024-02-14T07:10:14;3.80;71.40
17415;DHT22;8825;48.086;16.426;2024-02-14T07:12:41;3.90;70.50
17415;DHT22;8825;48.086;16.426;2024-02-14T07:15:09;3.90;70.40
17415;DHT22;8825;48.086;16.426;2024-02-14T07:17:37;4.00;70.40
17415;DHT22;8825;48.086;16.426;2024-02-14T07:20:08;4.10;70.30
17415;DHT22;8825;48.086;16.426;2024-02-14T07:22:36;4.20;70.30
17415;DHT22;8825;48.086;16.426;2024-02-14T07:25:04;4.20;70.10
17415;DHT22;8825;48.086;16.426;2024-02-14T07:27:31;4.30;70.00
17415;DHT22;8825;48.086;16.426;2024-02-14T07:29:59;4.40;69.80
17415;DHT22;8825;48.086;16.426;2024-02-14T07:32:26;4.40;69.50
17415;DHT22;8825;48.086;16.426;2024-02-14T07:34:54;4.40;69.50
17415;DHT22;8825;48.086;16.426;2024-02-14T07:37:21;4.30;69.60
17415;DHT22;8825;48.086;16.426;2024-02-14T07:39:50;4.30;69.80
17415;DHT22;8825;48.086;16.426;2024-02-14T07:42:17;4.30;70.10
17415;DHT22;8825;48.086;16.426;2024-02-14T07:44:45;4.40;70.00
17415;DHT22;8825;48.086;16.426;2024-02-14T07:47:12;4.40;70.00
17415;DHT22;8825;48.086;16.426;2024-02-14T07:49:40;4.50;70.30
17415;DHT22;8825;48.086;16.426;2024-02-14T07:52:08;4.60;70.30
17415;DHT22;8825;48.086;16.426;2024-02-14T07:54:35;4.80;70.30
17415;DHT22;8825;48.086;16.426;2024-02-14T07:57:03;4.90;70.10
17415;DHT22;8825;48.086;16.426;2024-02-14T07:59:30;5.00;70.10
17415;DHT22;8825;48.086;16.426;2024-02-14T08:01:58;5.20;70.10
17415;DHT22;8825;48.086;16.426;2024-02-14T08:04:25;5.50;69.90
17415;DHT22;8825;48.086;16.426;2024-02-14T08:06:54;5.60;69.90
17415;DHT22;8825;48.086;16.426;2024-02-14T08:09:22;5.70;69.60
17415;DHT22;8825;48.086;16.426;2024-02-14T08:11:49;5.80;69.50
17415;DHT22;8825;48.086;16.426;2024-02-14T08:14:18;6.00;69.40
17415;DHT22;8825;48.086;16.426;2024-02-14T08:16:46;6.10;69.20
17415;DHT22;8825;48.086;16.426;2024-02-14T08:19:13;6.20;69.10
17415;DHT22;8825;48.086;16.426;2024-02-14T08:21:42;6.30;69.00
17415;DHT22;8825;48.086;16.426;2024-02-14T08:24:09;6.40;68.70
17415;DHT22;8825;48.086;16.426;2024-02-14T08:26:37;6.40;68.50
17415;DHT22;8825;48.086;16.426;2024-02-14T08:29:04;6.50;68.60
17415;DHT22;8825;48.086;16.426;2024-02-14T08:31:32;6.60;68.50
17415;DHT22;8825;48.086;16.426;2024-02-14T08:34:01;6.70;68.30
17415;DHT22;8825;48.086;16.426;2024-02-14T08:36:28;6.80;68.20
17415;DHT22;8825;48.086;16.426;2024-02-14T08:38:56;6.90;68.00
17415;DHT22;8825;48.086;16.426;2024-02-14T08:41:24;7.00;68.00
17415;DHT22;8825;48.086;16.426;2024-02-14T08:43:51;7.00;68.20
17415;DHT22;8825;48.086;16.426;2024-02-14T08:46:19;7.10;67.80
17415;DHT22;8825;48.086;16.426;2024-02-14T08:48:46;7.10;67.60
17415;DHT22;8825;48.086;16.426;2024-02-14T08:51:15;7.20;67.60
17415;DHT22;8825;48.086;16.426;2024-02-14T08:53:42;7.20;67.70
17415;DHT22;8825;48.086;16.426;2024-02-14T08:56:11;7.20;67.50
17415;DHT22;8825;48.086;16.426;2024-02-14T08:58:38;7.30;67.40
17415;DHT22;8825;48.086;16.426;2024-02-14T09:01:06;7.30;67.10
17415;DHT22;8825;48.086;16.426;2024-02-14T09:03:34;7.40;67.00
17415;DHT22;8825;48.086;16.426;2024-02-14T09:06:02;7.40;66.70
17415;DHT22;8825;48.086;16.426;2024-02-14T09:08:31;7.50;66.40
17415;DHT22;8825;48.086;16.426;2024-02-14T09:10:58;7.60;66.20
17415;DHT22;8825;48.086;16.426;2024-02-14T09:13:26;7.80;66.20
17415;DHT22;8825;48.086;16.426;2024-02-14T09:15:54;7.90;66.20
17415;DHT22;8825;48.086;16.426;2024-02-14T09:18:21;8.20;66.00
17415;DHT22;8825;48.086;16.426;2024-02-14T09:20:50;8.50;65.90
17415;DHT22;8825;48.086;16.426;2024-02-14T09:23:18;9.00;65.10
17415;DHT22;8825;48.086;16.426;2024-02-14T09:25:47;9.30;64.00
17415;DHT22;8825;48.086;16.426;2024-02-14T09:28:16;9.50;62.90
17415;DHT22;8825;48.086;16.426;2024-02-14T09:30:44;9.70;62.60
17415;DHT22;8825;48.086;16.426;2024-02-14T09:33:11;10.00;61.70
17415;DHT22;8825;48.086;16.426;2024-02-14T09:35:39;10.30;60.80
17415;DHT22;8825;48.086;16.426;2024-02-14T09:38:08;10.90;60.00
17415;DHT22;8825;48.086;16.426;2024-02-14T09:40:35;11.60;58.90
17415;DHT22;8825;48.086;16.426;2024-02-14T09:43:05;12.20;57.50
17415;DHT22;8825;48.086;16.426;2024-02-14T09:45:33;12.80;56.10
17415;DHT22;8825;48.086;16.426;2024-02-14T09:48:01;13.40;54.90
17415;DHT22;8825;48.086;16.426;2024-02-14T09:50:30;13.90;52.70
17415;DHT22;8825;48.086;16.426;2024-02-14T09:52:59;14.20;51.20
17415;DHT22;8825;48.086;16.426;2024-02-14T09:55:27;14.50;50.60
17415;DHT22;8825;48.086;16.426;2024-02-14T09:57:55;14.80;49.70
17415;DHT22;8825;48.086;16.426;2024-02-14T10:00:23;15.30;47.80
17415;DHT22;8825;48.086;16.426;2024-02-14T10:02:51;15.30;45.90
17415;DHT22;8825;48.086;16.426;2024-02-14T10:05:18;15.30;46.40
17415;DHT22;8825;48.086;16.426;2024-02-14T10:07:46;15.60;46.40
17415;DHT22;8825;48.086;16.426;2024-02-14T10:10:14;16.00;46.00
17415;DHT22;8825;48.086;16.426;2024-02-14T10:12:42;16.60;45.20
17415;DHT22;8825;48.086;16.426;2024-02-14T10:15:10;17.10;44.70
17415;DHT22;8825;48.086;16.426;2024-02-14T10:17:39;17.40;43.70
17415;DHT22;8825;48.086;16.426;2024-02-14T10:20:10;17.80;42.90
17415;DHT22;8825;48.086;16.426;2024-02-14T10:22:38;18.20;42.50
17415;DHT22;8825;48.086;16.426;2024-02-14T10:25:07;18.60;41.40
17415;DHT22;8825;48.086;16.426;2024-02-14T10:27:37;18.80;40.80
17415;DHT22;8825;48.086;16.426;2024-02-14T10:30:06;19.00;40.20
17415;DHT22;8825;48.086;16.426;2024-02-14T10:32:37;19.30;39.70
17415;DHT22;8825;48.086;16.426;2024-02-14T10:35:06;19.60;39.00
17415;DHT22;8825;48.086;16.426;2024-02-14T10:37:38;19.40;36.60
17415;DHT22;8825;48.086;16.426;2024-02-14T10:40:07;19.30;37.40
17415;DHT22;8825;48.086;16.426;2024-02-14T10:42:36;19.30;37.00
17415;DHT22;8825;48.086;16.426;2024-02-14T10:45:04;19.30;37.40
17415;DHT22;8825;48.086;16.426;2024-02-14T10:47:34;19.50;37.10
17415;DHT22;8825;48.086;16.426;2024-02-14T10:50:05;19.30;35.60
17415;DHT22;8825;48.086;16.426;2024-02-14T10:52:34;19.00;35.30
17415;DHT22;8825;48.086;16.426;2024-02-14T10:55:04;18.90;36.50
17415;DHT22;8825;48.086;16.426;2024-02-14T10:57:35;19.20;36.70
17415;DHT22;8825;48.086;16.426;2024-02-14T11:00:08;19.50;36.80
17415;DHT22;8825;48.086;16.426;2024-02-14T11:02:37;19.90;36.50
17415;DHT22;8825;48.086;16.426;2024-02-14T11:05:05;20.30;36.00
17415;DHT22;8825;48.086;16.426;2024-02-14T11:07:33;20.10;33.70
17415;DHT22;8825;48.086;16.426;2024-02-14T11:10:06;19.80;34.50
17415;DHT22;8825;48.086;16.426;2024-02-14T11:12:35;19.80;34.60
17415;DHT22;8825;48.086;16.426;2024-02-14T11:15:10;19.70;34.50
17415;DHT22;8825;48.086;16.426;2024-02-14T11:17:40;19.90;34.80
17415;DHT22;8825;48.086;16.426;2024-02-14T11:20:15;20.10;34.40
17415;DHT22;8825;48.086;16.426;2024-02-14T11:23:03;19.90;34.10
17415;DHT22;8825;48.086;16.426;2024-02-14T11:25:33;19.70;34.40
17415;DHT22;8825;48.086;16.426;2024-02-14T11:28:15;19.20;34.00
17415;DHT22;8825;48.086;16.426;2024-02-14T11:30:44;18.70;34.20
17415;DHT22;8825;48.086;16.426;2024-02-14T11:33:22;18.20;35.50
17415;DHT22;8825;48.086;16.426;2024-02-14T11:35:51;17.80;36.20
17415;DHT22;8825;48.086;16.426;2024-02-14T11:38:21;17.50;37.00
17415;DHT22;8825;48.086;16.426;2024-02-14T11:40:56;17.30;37.50
17415;DHT22;8825;48.086;16.426;2024-02-14T11:43:21;17.10;37.90
17415;DHT22;8825;48.086;16.426;2024-02-14T11:45:49;16.80;38.30
17415;DHT22;8825;48.086;16.426;2024-02-14T11:48:21;16.60;39.10
17415;DHT22;8825;48.086;16.426;2024-02-14T11:50:49;16.60;39.20
17415;DHT22;8825;48.086;16.426;2024-02-14T11:53:18;16.50;39.50
17415;DHT22;8825;48.086;16.426;2024-02-14T11:55:46;16.40;39.60
17415;DHT22;8825;48.086;16.426;2024-02-14T11:58:15;16.20;40.00
17415;DHT22;8825;48.086;16.426;2024-02-14T12:00:44;16.10;40.30
17415;DHT22;8825;48.086;16.426;2024-02-14T12:03:18;16.10;40.70
17415;DHT22;8825;48.086;16.426;2024-02-14T12:05:47;15.90;40.50
17415;DHT22;8825;48.086;16.426;2024-02-14T12:08:15;15.70;40.90
17415;DHT22;8825;48.086;16.426;2024-02-14T12:10:44;15.60;41.10
17415;DHT22;8825;48.086;16.426;2024-02-14T12:13:20;15.40;41.40
17415;DHT22;8825;48.086;16.426;2024-02-14T12:15:50;15.30;41.60
17415;DHT22;8825;48.086;16.426;2024-02-14T12:18:19;15.10;41.50
17415;DHT22;8825;48.086;16.426;2024-02-14T12:20:47;15.00;41.90
17415;DHT22;8825;48.086;16.426;2024-02-14T12:23:17;14.90;42.10
17415;DHT22;8825;48.086;16.426;2024-02-14T12:25:46;14.70;42.20
17415;DHT22;8825;48.086;16.426;2024-02-14T12:28:15;14.60;42.80
17415;DHT22;8825;48.086;16.426;2024-02-14T12:30:46;14.60;43.20
17415;DHT22;8825;48.086;16.426;2024-02-14T12:33:16;14.50;43.40
17415;DHT22;8825;48.086;16.426;2024-02-14T12:35:51;14.50;43.80
17415;DHT22;8825;48.086;16.426;2024-02-14T12:38:20;14.50;43.90
17415;DHT22;8825;48.086;16.426;2024-02-14T12:40:49;14.50;43.80
17415;DHT22;8825;48.086;16.426;2024-02-14T12:43:19;14.50;44.00
17415;DHT22;8825;48.086;16.426;2024-02-14T12:45:46;14.60;44.50
17415;DHT22;8825;48.086;16.426;2024-02-14T12:48:21;14.70;44.00
17415;DHT22;8825;48.086;16.426;2024-02-14T12:50:46;14.80;44.10
17415;DHT22;8825;48.086;16.426;2024-02-14T12:53:14;14.80;43.80
17415;DHT22;8825;48.086;16.426;2024-02-14T12:55:42;14.90;43.80
17415;DHT22;8825;48.086;16.426;2024-02-14T12:58:10;15.00;43.70
17415;DHT22;8825;48.086;16.426;2024-02-14T13:00:37;15.00;43.60
17415;DHT22;8825;48.086;16.426;2024-02-14T13:03:05;15.10;43.70
17415;DHT22;8825;48.086;16.426;2024-02-14T13:05:32;15.10;43.50
17415;DHT22;8825;48.086;16.426;2024-02-14T13:08:01;15.20;43.60
17415;DHT22;8825;48.086;16.426;2024-02-14T13:10:29;15.30;43.70
17415;DHT22;8825;48.086;16.426;2024-02-14T13:12:58;15.40;43.50
17415;DHT22;8825;48.086;16.426;2024-02-14T13:15:25;15.40;43.20
17415;DHT22;8825;48.086;16.426;2024-02-14T13:17:53;15.40;42.80
17415;DHT22;8825;48.086;16.426;2024-02-14T13:20:20;15.40;42.80
17415;DHT22;8825;48.086;16.426;2024-02-14T13:22:48;15.40;42.40
17415;DHT22;8825;48.086;16.426;2024-02-14T13:25:16;15.30;42.10
17415;DHT22;8825;48.086;16.426;2024-02-14T13:27:44;15.20;42.10
17415;DHT22;8825;48.086;16.426;2024-02-14T13:30:12;15.20;42.10
17415;DHT22;8825;48.086;16.426;2024-02-14T13:32:39;15.20;42.30
17415;DHT22;8825;48.086;16.426;2024-02-14T13:35:07;15.20;42.40
17415;DHT22;8825;48.086;16.426;2024-02-14T13:37:34;15.20;42.30
17415;DHT22;8825;48.086;16.426;2024-02-14T13:40:02;15.10;42.20
17415;DHT22;8825;48.086;16.426;2024-02-14T13:42:31;15.10;42.40
17415;DHT22;8825;48.086;16.426;2024-02-14T13:44:59;15.00;42.40
17415;DHT22;8825;48.086;16.426;2024-02-14T13:47:26;15.00;42.40
17415;DHT22;8825;48.086;16.426;2024-02-14T13:49:54;15.00;42.40
17415;DHT22;8825;48.086;16.426;2024-02-14T13:52:21;15.00;42.60
17415;DHT22;8825;48.086;16.426;2024-02-14T13:54:49;15.00;42.50
17415;DHT22;8825;48.086;16.426;2024-02-14T13:57:16;15.00;42.50
17415;DHT22;8825;48.086;16.426;2024-02-14T13:59:44;15.00;42.60
17415;DHT22;8825;48.086;16.426;2024-02-14T14:02:12;15.00;43.20
17415;DHT22;8825;48.086;16.426;2024-02-14T14:04:39;14.90;42.30
17415;DHT22;8825;48.086;16.426;2024-02-14T14:07:07;14.80;42.10
17415;DHT22;8825;48.086;16.426;2024-02-14T14:09:34;14.70;42.10
17415;DHT22;8825;48.086;16.426;2024-02-14T14:12:02;14.60;42.00
17415;DHT22;8825;48.086;16.426;2024-02-14T14:14:29;14.50;42.10
17415;DHT22;8825;48.086;16.426;2024-02-14T14:16:57;14.50;42.10
17415;DHT22;8825;48.086;16.426;2024-02-14T14:19:24;14.40;42.00
17415;DHT22;8825;48.086;16.426;2024-02-14T14:21:52;14.40;42.10
17415;DHT22;8825;48.086;16.426;2024-02-14T14:24:21;14.40;42.20
17415;DHT22;8825;48.086;16.426;2024-02-14T14:26:49;14.40;42.40
17415;DHT22;8825;48.086;16.426;2024-02-14T14:29:18;14.40;42.60
17415;DHT22;8825;48.086;16.426;2024-02-14T14:31:46;14.30;42.50
17415;DHT22;8825;48.086;16.426;2024-02-14T14:34:13;14.30;42.50
17415;DHT22;8825;48.086;16.426;2024-02-14T14:36:42;14.40;42.70
17415;DHT22;8825;48.086;16.426;2024-02-14T14:39:09;14.30;42.80
17415;DHT22;8825;48.086;16.426;2024-02-14T14:41:38;14.30;42.80
17415;DHT22;8825;48.086;16.426;2024-02-14T14:44:05;14.30;42.90
17415;DHT22;8825;48.086;16.426;2024-02-14T14:46:33;14.30;43.10
17415;DHT22;8825;48.086;16.426;2024-02-14T14:49:01;14.30;43.20
17415;DHT22;8825;48.086;16.426;2024-02-14T14:51:29;14.30;43.30
17415;DHT22;8825;48.086;16.426;2024-02-14T14:53:57;14.30;43.40
17415;DHT22;8825;48.086;16.426;2024-02-14T14:56:25;14.30;43.50
17415;DHT22;8825;48.086;16.426;2024-02-14T14:58:53;14.30;43.50
17415;DHT22;8825;48.086;16.426;2024-02-14T15:01:22;14.30;43.70
17415;DHT22;8825;48.086;16.426;2024-02-14T15:03:50;14.30;43.80
17415;DHT22;8825;48.086;16.426;2024-02-14T15:06:19;14.30;43.80
17415;DHT22;8825;48.086;16.426;2024-02-14T15:08:46;14.20;43.90
17415;DHT22;8825;48.086;16.426;2024-02-14T15:11:14;14.20;44.00
17415;DHT22;8825;48.086;16.426;2024-02-14T15:13:44;14.20;43.80
17415;DHT22;8825;48.086;16.426;2024-02-14T15:16:13;14.20;43.70
17415;DHT22;8825;48.086;16.426;2024-02-14T15:18:40;14.20;43.70
17415;DHT22;8825;48.086;16.426;2024-02-14T15:21:10;14.20;43.70
17415;DHT22;8825;48.086;16.426;2024-02-14T15:23:38;14.20;43.80
17415;DHT22;8825;48.086;16.426;2024-02-14T15:26:06;14.10;43.80
17415;DHT22;8825;48.086;16.426;2024-02-14T15:28:35;14.20;44.00
17415;DHT22;8825;48.086;16.426;2024-02-14T15:31:04;14.20;44.10
17415;DHT22;8825;48.086;16.426;2024-02-14T15:33:50;14.20;44.10
17415;DHT22;8825;48.086;16.426;2024-02-14T15:36:17;14.20;44.10
17415;DHT22;8825;48.086;16.426;2024-02-14T15:38:45;14.20;44.30
17415;DHT22;8825;48.086;16.426;2024-02-14T15:41:12;14.10;44.30
17415;DHT22;8825;48.086;16.426;2024-02-14T15:43:41;14.10;44.40
17415;DHT22;8825;48.086;16.426;2024-02-14T15:46:13;14.10;44.50